Time;durP1;ratioP1;P1;durP2;ratioP2;P2;SDS_P1;SDS_P2;PMS_P1;PMS_P2;Temp;Humidity;BMP_temperature;BMP_pressure;BME280_temperature;BME280_humidity;BME280_pressure;Samples;Min_cycle;Max_cycle;Signal;HPM_P1;HPM_P2
2021/09/24 00:00:10;;;;;;;;;;;;;;;19.68;52.29;101076.38;5095456;28;811;-64
2021/09/24 00:02:39;;;;;;;;;;;;;;;19.69;52.30;101071.69;5095387;28;775;-64
2021/09/24 00:05:05;;;;;;;;;;;;;;;19.83;51.79;101069.94;5095324;28;1971;-64
2021/09/24 00:07:30;;;;;;;;;;;;;;;19.67;52.30;101074.75;5095273;28;1014;-64
2021/09/24 00:09:55;;;;;;;;;;;;;;;19.78;51.92;101070.78;5095336;28;1058;-64
2021/09/24 00:12:21;;;;;;;;;;;;;;;19.73;51.91;101068.06;5094975;28;779;-63
2021/09/24 00:14:46;;;;;;;;;;;;;;;19.70;52.12;101067.78;5094282;28;775;-64
2021/09/24 00:17:13;;;;;;;;;;;;;;;19.62;52.60;101074.75;5088746;28;1572;-64
2021/09/24 00:19:39;;;;;;;;;;;;;;;19.81;51.89;101067.47;5074748;28;771;-64
2021/09/24 00:22:04;;;;;;;;;;;;;;;19.88;51.55;101069.06;5084174;28;1077;-65
2021/09/24 00:24:30;;;;;;;;;;;;;;;19.70;52.24;101068.63;5095258;28;1951;-64
2021/09/24 00:26:55;;;;;;;;;;;;;;;19.76;51.90;101061.16;5127758;27;790;-64
2021/09/24 00:29:20;;;;;;;;;;;;;;;19.81;51.74;101064.72;5095126;28;780;-65
2021/09/24 00:31:46;;;;;;;;;;;;;;;19.70;52.16;101059.53;5095230;28;1209;-64
2021/09/24 00:34:11;;;;;;;;;;;;;;;19.66;52.13;101062.88;5094318;28;748;-65
2021/09/24 00:36:37;;;;;;;;;;;;;;;19.63;52.32;101054.34;5094880;28;1466;-63
2021/09/24 00:39:02;;;;;;;;;;;;;;;19.78;51.78;101054.22;5094797;28;794;-63
2021/09/24 00:41:28;;;;;;;;;;;;;;;19.67;52.17;101047.16;5094728;28;780;-64
2021/09/24 00:43:53;;;;;;;;;;;;;;;19.56;52.47;101042.78;5094497;28;855;-64
2021/09/24 00:46:18;;;;;;;;;;;;;;;19.73;52.01;101037.72;5094668;28;1906;-65
2021/09/24 00:48:44;;;;;;;;;;;;;;;19.57;52.40;101034.25;5093378;28;1188;-64
2021/09/24 00:51:10;;;;;;;;;;;;;;;19.59;52.54;101033.97;5094419;28;1033;-64
2021/09/24 00:53:35;;;;;;;;;;;;;;;19.65;52.10;101036.38;5094366;28;1059;-65
2021/09/24 00:56:01;;;;;;;;;;;;;;;19.66;52.28;101039.97;5094798;28;831;-65
2021/09/24 00:58:26;;;;;;;;;;;;;;;19.51;52.43;101031.81;5094332;28;1064;-65
2021/09/24 01:00:52;;;;;;;;;;;;;;;19.74;51.81;101031.09;5094990;28;810;-65
2021/09/24 01:03:17;;;;;;;;;;;;;;;19.69;52.00;101030.31;5093309;28;782;-64
2021/09/24 01:05:42;;;;;;;;;;;;;;;19.63;52.09;101024.00;5093997;28;1982;-64
2021/09/24 01:08:08;;;;;;;;;;;;;;;19.78;51.72;101010.09;5094240;28;1107;-64
2021/09/24 01:10:34;;;;;;;;;;;;;;;19.79;51.55;101011.75;5093765;28;1822;-64
2021/09/24 01:12:59;;;;;;;;;;;;;;;19.73;51.92;101017.59;5094432;28;751;-64
2021/09/24 01:15:24;;;;;;;;;;;;;;;19.77;51.94;101016.69;5094480;28;866;-64
2021/09/24 01:17:50;;;;;;;;;;;;;;;19.66;52.18;101006.88;5093974;28;763;-65
2021/09/24 01:20:16;;;;;;;;;;;;;;;19.81;51.76;101006.78;5094386;28;845;-65
2021/09/24 01:22:42;;;;;;;;;;;;;;;19.57;52.38;101006.69;5094399;28;1060;-65
2021/09/24 01:25:08;;;;;;;;;;;;;;;19.54;52.27;100987.91;5075982;28;1980;-64
2021/09/24 01:27:33;;;;;;;;;;;;;;;19.54;52.41;100989.88;5094500;28;743;-64
2021/09/24 01:29:58;;;;;;;;;;;;;;;19.70;51.81;101004.34;5094066;28;1384;-64
2021/09/24 01:32:24;;;;;;;;;;;;;;;19.62;52.03;100998.34;5094366;28;1167;-65
2021/09/24 01:34:49;;;;;;;;;;;;;;;19.67;51.93;100986.47;5080470;28;2064;-67
2021/09/24 01:37:15;;;;;;;;;;;;;;;19.85;51.57;100986.88;5085103;28;1053;-64
2021/09/24 01:39:40;;;;;;;;;;;;;;;19.80;51.50;100991.31;5094297;28;755;-69
2021/09/24 01:42:06;;;;;;;;;;;;;;;19.73;51.82;100990.00;5094826;28;807;-66
2021/09/24 01:44:31;;;;;;;;;;;;;;;19.72;51.73;100983.63;5094477;28;1922;-65
2021/09/24 01:46:56;;;;;;;;;;;;;;;19.67;51.95;100986.47;5094874;28;828;-66
2021/09/24 01:49:22;;;;;;;;;;;;;;;19.77;51.50;100996.56;5098136;28;855;-64
2021/09/24 01:51:47;;;;;;;;;;;;;;;19.65;51.85;100988.66;5098086;28;1049;-65
2021/09/24 01:54:13;;;;;;;;;;;;;;;19.59;52.09;101000.88;5096645;28;805;-65
2021/09/24 01:56:38;;;;;;;;;;;;;;;19.66;51.73;100991.13;5096681;28;783;-68
2021/09/24 01:59:04;;;;;;;;;;;;;;;19.76;51.56;100995.75;5097451;28;774;-64
2021/09/24 02:01:29;;;;;;;;;;;;;;;19.67;51.77;100983.69;5096206;28;798;-66
2021/09/24 02:03:55;;;;;;;;;;;;;;;19.70;51.69;100996.91;5098463;28;878;-66
2021/09/24 02:06:20;;;;;;;;;;;;;;;19.68;51.88;100999.13;5097597;28;1905;-67
2021/09/24 02:08:45;;;;;;;;;;;;;;;19.69;51.70;100999.97;5096292;28;756;-66
2021/09/24 02:11:11;;;;;;;;;;;;;;;19.64;51.72;101006.31;5097640;28;1070;-66
2021/09/24 02:13:39;;;;;;;;;;;;;;;19.77;51.64;101004.84;5098203;28;878;-66
2021/09/24 02:16:05;;;;;;;;;;;;;;;19.67;51.70;100997.50;5097658;28;797;-64
2021/09/24 02:18:30;;;;;;;;;;;;;;;19.56;52.01;100996.75;5097187;28;873;-62
2021/09/24 02:20:56;;;;;;;;;;;;;;;19.72;51.63;100994.66;5097908;28;744;-63
2021/09/24 02:23:21;;;;;;;;;;;;;;;19.67;51.77;100994.72;5097084;28;1059;-62
2021/09/24 02:25:47;;;;;;;;;;;;;;;19.59;51.85;100996.16;5097355;28;1968;-64
2021/09/24 02:28:12;;;;;;;;;;;;;;;19.63;51.97;100999.19;5097462;28;854;-64
2021/09/24 02:30:38;;;;;;;;;;;;;;;19.77;51.42;101002.09;5097240;28;1014;-64
2021/09/24 02:33:04;;;;;;;;;;;;;;;19.71;51.77;101001.28;5097235;28;1177;-65
2021/09/24 02:35:29;;;;;;;;;;;;;;;19.67;51.84;101000.25;5097384;28;767;-64
2021/09/24 02:37:54;;;;;;;;;;;;;;;19.82;51.24;101000.16;5100707;22;2244;-62
2021/09/24 02:40:20;;;;;;;;;;;;;;;19.71;51.56;100998.53;5077121;28;794;-63
2021/09/24 02:42:46;;;;;;;;;;;;;;;19.59;51.92;100995.34;5077769;28;1129;-61
2021/09/24 02:45:11;;;;;;;;;;;;;;;19.62;51.94;101006.63;5077361;28;1910;-62
2021/09/24 02:47:36;;;;;;;;;;;;;;;19.65;51.68;101005.22;5076792;28;780;-62
2021/09/24 02:50:02;;;;;;;;;;;;;;;19.70;51.70;101004.34;5077057;28;779;-60
2021/09/24 02:52:28;;;;;;;;;;;;;;;19.66;51.67;101002.16;5076339;28;1066;-61
2021/09/24 02:54:53;;;;;;;;;;;;;;;19.66;51.84;101006.88;5076868;28;874;-61
2021/09/24 02:57:18;;;;;;;;;;;;;;;19.74;51.43;100997.97;5076567;28;748;-61
2021/09/24 02:59:44;;;;;;;;;;;;;;;19.64;51.72;100998.03;5076861;28;869;-61
2021/09/24 03:02:09;;;;;;;;;;;;;;;19.68;51.63;101001.88;5076645;28;748;-62
2021/09/24 03:04:35;;;;;;;;;;;;;;;19.79;51.33;101000.69;5076418;28;2002;-62
2021/09/24 03:07:00;;;;;;;;;;;;;;;19.85;51.04;100997.91;5076170;28;1379;-63
2021/09/24 03:09:25;;;;;;;;;;;;;;;19.81;51.09;100992.97;5075682;28;1780;-61
2021/09/24 03:11:51;;;;;;;;;;;;;;;19.72;51.55;100993.84;5076622;28;777;-62
2021/09/24 03:14:16;;;;;;;;;;;;;;;19.79;51.23;100992.41;5076419;28;1613;-60
2021/09/24 03:16:42;;;;;;;;;;;;;;;19.75;51.39;100979.47;5076146;28;1074;-61
2021/09/24 03:19:08;;;;;;;;;;;;;;;19.81;51.08;100979.19;5075825;28;1563;-58
2021/09/24 03:21:33;;;;;;;;;;;;;;;19.84;51.11;100986.06;5075922;28;1177;-62
2021/09/24 03:23:59;;;;;;;;;;;;;;;19.69;51.63;100984.22;5076466;28;807;-61
2021/09/24 03:26:24;;;;;;;;;;;;;;;19.81;51.38;100976.41;5076281;28;1906;-60
2021/09/24 03:28:49;;;;;;;;;;;;;;;19.80;51.32;100974.75;5076441;28;736;-61
2021/09/24 03:31:15;;;;;;;;;;;;;;;19.68;51.67;100971.53;5075790;28;1007;-61
2021/09/24 03:33:40;;;;;;;;;;;;;;;19.70;51.43;100969.31;5076430;28;755;-61
2021/09/24 03:36:06;;;;;;;;;;;;;;;19.65;51.65;100967.41;5076235;28;1065;-61
2021/09/24 03:38:31;;;;;;;;;;;;;;;19.75;51.42;100969.25;5075240;28;1012;-62
2021/09/24 03:40:57;;;;;;;;;;;;;;;19.66;51.83;100971.00;5076085;28;843;-62
2021/09/24 03:43:22;;;;;;;;;;;;;;;19.74;51.59;100964.03;5075223;28;846;-60
2021/09/24 03:45:47;;;;;;;;;;;;;;;19.68;51.49;100968.78;5075935;28;1913;-61
2021/09/24 03:48:13;;;;;;;;;;;;;;;19.66;51.49;100968.25;5075708;28;1670;-60
2021/09/24 03:50:38;;;;;;;;;;;;;;;19.64;51.80;100975.97;5075213;28;1253;-59
2021/09/24 03:53:04;;;;;;;;;;;;;;;19.58;51.83;100974.38;5074889;28;1203;-59
2021/09/24 03:55:29;;;;;;;;;;;;;;;19.47;52.29;100971.72;5076042;28;1325;-59
2021/09/24 03:57:55;;;;;;;;;;;;;;;19.59;51.63;100967.78;5076075;28;787;-61
2021/09/24 04:00:20;;;;;;;;;;;;;;;19.52;51.94;100965.34;5075260;28;790;-61
2021/09/24 04:02:45;;;;;;;;;;;;;;;19.50;51.95;100967.53;5075294;28;1447;-62
2021/09/24 04:05:11;;;;;;;;;;;;;;;19.66;51.06;100969.06;5075137;28;1959;-61
2021/09/24 04:07:36;;;;;;;;;;;;;;;19.59;51.03;100960.31;5075048;28;1105;-61
2021/09/24 04:10:02;;;;;;;;;;;;;;;19.53;51.24;100963.38;5074487;28;847;-63
2021/09/24 04:12:27;;;;;;;;;;;;;;;19.67;51.07;100967.16;5075230;28;736;-60
2021/09/24 04:14:53;;;;;;;;;;;;;;;19.69;51.16;100973.19;5074856;28;1388;-60
2021/09/24 04:17:18;;;;;;;;;;;;;;;19.30;52.07;100969.34;5075109;28;1435;-60
2021/09/24 04:19:44;;;;;;;;;;;;;;;19.51;51.36;100960.94;5075675;28;764;-60
2021/09/24 04:22:09;;;;;;;;;;;;;;;19.40;51.94;100964.88;5074436;28;1041;-59
2021/09/24 04:24:35;;;;;;;;;;;;;;;19.48;51.59;100956.00;5073769;28;1906;-59
2021/09/24 04:27:00;;;;;;;;;;;;;;;19.47;51.57;100963.47;5075168;28;747;-59
2021/09/24 04:29:25;;;;;;;;;;;;;;;19.65;51.37;100961.88;5074469;28;1325;-59
2021/09/24 04:31:51;;;;;;;;;;;;;;;19.76;50.83;100959.88;5073886;28;1520;-59
2021/09/24 04:34:16;;;;;;;;;;;;;;;19.67;51.32;100956.13;5075316;28;894;-61
2021/09/24 04:36:42;;;;;;;;;;;;;;;19.58;51.28;100947.63;5067815;28;1451;-60
2021/09/24 04:39:07;;;;;;;;;;;;;;;19.66;51.12;100946.19;5054719;28;744;-60
2021/09/24 04:41:32;;;;;;;;;;;;;;;19.71;51.08;100948.06;5055831;28;1325;-58
2021/09/24 04:43:58;;;;;;;;;;;;;;;19.60;51.30;100950.09;5054397;28;847;-58
2021/09/24 04:46:23;;;;;;;;;;;;;;;19.64;51.16;100951.16;5054499;28;1942;-59
2021/09/24 04:48:49;;;;;;;;;;;;;;;19.61;51.40;100946.22;5054695;28;819;-58
2021/09/24 04:51:14;;;;;;;;;;;;;;;19.80;50.87;100938.88;5054236;28;1059;-59
2021/09/24 04:53:39;;;;;;;;;;;;;;;19.81;50.89;100935.03;5054582;28;740;-60
2021/09/24 04:56:05;;;;;;;;;;;;;;;19.74;50.96;100934.53;5054547;28;1726;-59
2021/09/24 04:58:30;;;;;;;;;;;;;;;19.72;51.06;100933.16;5062951;28;1424;-58
2021/09/24 05:00:56;;;;;;;;;;;;;;;19.65;51.33;100923.28;5055260;28;1397;-58
2021/09/24 05:03:21;;;;;;;;;;;;;;;19.83;51.04;100927.25;5058315;28;1392;-59
2021/09/24 05:05:46;;;;;;;;;;;;;;;19.81;50.89;100926.75;5057235;28;2001;-59
2021/09/24 05:08:12;;;;;;;;;;;;;;;19.85;50.80;100926.97;5055149;28;1075;-60
2021/09/24 05:10:38;;;;;;;;;;;;;;;19.83;51.00;100929.22;5053720;28;1517;-59
2021/09/24 05:13:03;;;;;;;;;;;;;;;19.91;50.58;100924.97;5055997;28;807;-60
2021/09/24 05:15:29;;;;;;;;;;;;;;;19.85;50.70;100923.41;5037677;28;898;-60
2021/09/24 05:17:54;;;;;;;;;;;;;;;20.03;50.20;100917.13;5054894;28;832;-61
2021/09/24 05:20:20;;;;;;;;;;;;;;;20.07;50.30;100909.91;5054585;28;847;-60
2021/09/24 05:22:45;;;;;;;;;;;;;;;20.17;49.82;100912.56;5055319;28;1092;-60
2021/09/24 05:25:11;;;;;;;;;;;;;;;20.02;50.20;100915.50;5055256;28;1906;-61
2021/09/24 05:27:36;;;;;;;;;;;;;;;20.12;50.12;100909.03;5054994;28;807;-60
2021/09/24 05:30:02;;;;;;;;;;;;;;;20.23;49.61;100891.22;5053270;28;1527;-59
2021/09/24 05:32:27;;;;;;;;;;;;;;;20.15;49.85;100897.38;5054007;28;1633;-59
2021/09/24 05:34:53;;;;;;;;;;;;;;;20.23;49.90;100893.97;5054159;28;741;-58
2021/09/24 05:37:18;;;;;;;;;;;;;;;20.17;50.11;100900.66;5066946;28;1085;-60
2021/09/24 05:39:44;;;;;;;;;;;;;;;20.17;49.87;100907.03;5075022;28;799;-61
2021/09/24 05:42:09;;;;;;;;;;;;;;;20.23;49.95;100901.41;5075009;28;776;-60
2021/09/24 05:44:35;;;;;;;;;;;;;;;20.32;49.76;100896.91;5073951;28;1748;-61
2021/09/24 05:47:00;;;;;;;;;;;;;;;20.18;49.91;100900.38;5074583;28;1910;-62
2021/09/24 05:49:29;;;;;;;;;;;;;;;20.11;50.16;100901.84;5073886;28;803;-61
2021/09/24 05:51:55;;;;;;;;;;;;;;;19.97;50.55;100910.03;5073965;28;1118;-61
2021/09/24 05:54:20;;;;;;;;;;;;;;;20.09;50.26;100910.44;5074473;28;1440;-61
2021/09/24 05:56:46;;;;;;;;;;;;;;;20.12;50.17;100906.28;5074575;28;758;-61
2021/09/24 05:59:11;;;;;;;;;;;;;;;20.18;50.08;100907.84;5074166;28;704;-61
2021/09/24 06:01:36;;;;;;;;;;;;;;;20.05;50.23;100909.38;5074758;28;849;-60
2021/09/24 06:04:02;;;;;;;;;;;;;;;20.15;49.84;100913.97;5074481;28;1202;-60
2021/09/24 06:06:27;;;;;;;;;;;;;;;20.16;49.89;100916.41;5074112;28;1909;-60
2021/09/24 06:08:53;;;;;;;;;;;;;;;20.27;49.18;100917.13;5075224;28;795;-61
2021/09/24 06:11:19;;;;;;;;;;;;;;;20.11;49.66;100918.41;5074394;28;832;-61
2021/09/24 06:13:45;;;;;;;;;;;;;;;19.60;50.60;100926.09;5073926;28;815;-61
2021/09/24 06:16:10;;;;;;;;;;;;;;;19.21;51.27;100934.41;5074639;28;750;-61
2021/09/24 06:18:35;;;;;;;;;;;;;;;18.85;50.10;100934.66;5074347;28;747;-59
2021/09/24 06:21:02;;;;;;;;;;;;;;;18.43;49.64;100929.34;5074071;28;1422;-61
2021/09/24 06:23:28;;;;;;;;;;;;;;;18.33;49.05;100934.06;5074245;28;1052;-60
2021/09/24 06:25:53;;;;;;;;;;;;;;;18.47;51.84;100921.38;5073858;28;1967;-58
2021/09/24 06:28:19;;;;;;;;;;;;;;;18.79;53.41;100918.16;5074507;28;767;-59
2021/09/24 06:30:44;;;;;;;;;;;;;;;19.28;52.60;100923.91;5074739;28;815;-58
2021/09/24 06:33:10;;;;;;;;;;;;;;;19.70;51.46;100935.38;5075780;28;1055;-60
2021/09/24 06:35:35;;;;;;;;;;;;;;;19.97;50.42;100927.41;5077303;28;915;-58
2021/09/24 06:38:00;;;;;;;;;;;;;;;20.21;49.95;100931.28;5077295;28;1037;-60
2021/09/24 06:40:26;;;;;;;;;;;;;;;20.33;49.71;100931.69;5077650;28;1084;-60
2021/09/24 06:42:53;;;;;;;;;;;;;;;20.12;50.05;100926.41;5078062;28;791;-60
2021/09/24 06:45:19;;;;;;;;;;;;;;;19.68;50.96;100930.16;5077543;28;1930;-59
2021/09/24 06:47:44;;;;;;;;;;;;;;;19.68;51.10;100935.66;5077509;28;1033;-60
2021/09/24 06:50:10;;;;;;;;;;;;;;;19.36;51.73;100934.28;5077212;28;823;-60
2021/09/24 06:52:35;;;;;;;;;;;;;;;19.17;52.39;100914.88;5076802;28;1446;-60
2021/09/24 06:55:01;;;;;;;;;;;;;;;18.92;53.03;100916.72;5077382;28;814;-59
2021/09/24 06:57:26;;;;;;;;;;;;;;;18.89;53.06;100922.00;5077335;28;1470;-60
2021/09/24 06:59:52;;;;;;;;;;;;;;;18.87;53.31;100926.91;5076948;28;791;-60
2021/09/24 07:02:17;;;;;;;;;;;;;;;18.82;53.17;100933.28;5077950;28;760;-62
2021/09/24 07:04:42;;;;;;;;;;;;;;;18.71;53.86;100931.72;5077124;28;1902;-61
2021/09/24 07:07:09;;;;;;;;;;;;;;;18.98;53.03;100931.28;5076657;28;1156;-59
2021/09/24 07:09:35;;;;;;;;;;;;;;;19.10;52.84;100934.50;5077468;28;763;-59
2021/09/24 07:12:00;;;;;;;;;;;;;;;19.52;51.51;100943.28;5077195;28;902;-59
2021/09/24 07:14:26;;;;;;;;;;;;;;;19.60;51.28;100942.66;5076376;28;732;-60
2021/09/24 07:16:52;;;;;;;;;;;;;;;19.66;50.95;100940.66;5077197;28;857;-61
2021/09/24 07:19:18;;;;;;;;;;;;;;;19.64;51.33;100931.84;5077348;28;843;-60
2021/09/24 07:21:43;;;;;;;;;;;;;;;19.81;50.60;100932.25;5076728;28;1130;-60
2021/09/24 07:24:09;;;;;;;;;;;;;;;19.81;50.38;100921.22;5077319;28;926;-60
2021/09/24 07:26:34;;;;;;;;;;;;;;;19.91;50.40;100924.97;5076374;28;1914;-61
2021/09/24 07:29:00;;;;;;;;;;;;;;;19.99;50.20;100933.47;5076756;28;756;-62
2021/09/24 07:34:52;;;;;;;;;;;;;;;20.04;49.93;100896.69;5075748;28;1651;-61
2021/09/24 07:37:17;;;;;;;;;;;;;;;20.11;49.76;100904.63;5076302;28;1078;-62
2021/09/24 07:39:43;;;;;;;;;;;;;;;20.13;49.85;100908.72;5076848;28;791;-62
2021/09/24 07:42:08;;;;;;;;;;;;;;;20.11;49.88;100912.91;5075581;28;1749;-60
2021/09/24 07:44:34;;;;;;;;;;;;;;;20.15;49.72;100914.78;5076287;28;823;-60
2021/09/24 07:46:59;;;;;;;;;;;;;;;20.23;49.61;100907.78;5076407;28;1972;-62
2021/09/24 07:49:25;;;;;;;;;;;;;;;20.33;49.30;100904.06;5076019;28;816;-62
2021/09/24 07:51:53;;;;;;;;;;;;;;;20.29;49.20;100911.31;5075704;28;1443;-61
2021/09/24 07:54:21;;;;;;;;;;;;;;;20.42;49.07;100929.91;5076007;28;1442;-61
2021/09/24 07:56:47;;;;;;;;;;;;;;;20.45;48.87;100920.19;5075191;28;908;-61
2021/09/24 07:59:12;;;;;;;;;;;;;;;20.41;48.92;100917.22;5076589;28;787;-61
2021/09/24 08:01:37;;;;;;;;;;;;;;;19.85;50.41;100910.41;5076536;28;730;-61
2021/09/24 08:04:03;;;;;;;;;;;;;;;19.63;50.98;100914.47;5075702;28;1728;-62
2021/09/24 08:06:28;;;;;;;;;;;;;;;19.49;51.22;100906.06;5075400;28;1962;-61
2021/09/24 08:08:54;;;;;;;;;;;;;;;19.37;51.51;100907.56;5076168;28;774;-60
2021/09/24 08:11:19;;;;;;;;;;;;;;;19.15;52.22;100897.81;5076235;28;835;-60
2021/09/24 08:13:45;;;;;;;;;;;;;;;19.13;52.42;100895.34;5075958;28;1600;-61
2021/09/24 08:16:10;;;;;;;;;;;;;;;19.04;52.50;100891.56;5075704;28;815;-61
2021/09/24 08:18:37;;;;;;;;;;;;;;;18.97;52.68;100885.53;5075742;28;799;-63
2021/09/24 08:21:03;;;;;;;;;;;;;;;18.95;52.70;100877.56;5075101;28;1084;-63
2021/09/24 08:23:29;;;;;;;;;;;;;;;18.84;53.00;100875.97;5075741;28;1068;-66
2021/09/24 08:25:55;;;;;;;;;;;;;;;18.79;53.18;100873.25;5075457;28;2005;-63
2021/09/24 08:28:20;;;;;;;;;;;;;;;18.76;53.08;100863.63;5075519;28;850;-62
2021/09/24 08:30:46;;;;;;;;;;;;;;;18.67;53.26;100865.34;5075898;28;805;-62
2021/09/24 08:33:14;;;;;;;;;;;;;;;18.95;52.70;100871.22;5075376;28;1374;-61
2021/09/24 08:35:39;;;;;;;;;;;;;;;19.06;52.19;100877.50;5074881;28;1443;-61
2021/09/24 08:38:04;;;;;;;;;;;;;;;19.44;51.17;100866.69;5057765;28;1172;-62
2021/09/24 08:40:30;;;;;;;;;;;;;;;19.45;51.17;100866.38;5055803;28;776;-62
2021/09/24 08:42:56;;;;;;;;;;;;;;;19.70;50.35;100845.16;5055442;28;1388;-62
2021/09/24 08:45:26;;;;;;;;;;;;;;;19.79;50.29;100840.66;5053244;28;1969;-62
2021/09/24 08:47:55;;;;;;;;;;;;;;;19.58;50.77;100844.75;5054873;28;1142;-61
2021/09/24 08:50:20;;;;;;;;;;;;;;;19.75;50.35;100839.56;5036468;28;834;-63
2021/09/24 08:52:46;;;;;;;;;;;;;;;19.70;50.48;100836.91;5055184;28;1062;-63
2021/09/24 08:55:11;;;;;;;;;;;;;;;19.72;50.41;100840.16;5055422;28;1534;-62
2021/09/24 08:57:37;;;;;;;;;;;;;;;19.65;50.58;100831.44;5202343;22;3631;-63
2021/09/24 09:00:05;;;;;;;;;;;;;;;19.85;49.95;100827.63;5075436;28;739;-61
2021/09/24 09:02:49;;;;;;;;;;;;;;;19.86;49.87;100818.25;5075759;28;841;-62
2021/09/24 09:05:15;;;;;;;;;;;;;;;19.77;50.24;100815.28;5074885;28;1991;-63
2021/09/24 09:07:41;;;;;;;;;;;;;;;19.67;50.71;100815.41;5075284;28;990;-61
2021/09/24 09:12:55;;;;;;;;;;;;;;;19.79;51.08;100812.22;5008699;28;1960;-62
2021/09/24 09:15:20;;;;;;;;;;;;;;;19.90;50.57;100801.94;5005921;28;1409;-63
2021/09/24 09:17:50;;;;;;;;;;;;;;;19.93;50.34;100796.63;4996191;28;765;-62
2021/09/24 09:20:19;;;;;;;;;;;;;;;19.90;50.29;100801.94;4996066;28;1150;-61
2021/09/24 09:22:46;;;;;;;;;;;;;;;19.88;50.87;100798.63;5024282;28;1025;-62
2021/09/24 09:25:22;;;;;;;;;;;;;;;20.04;50.42;100783.50;5028676;28;1910;-64
2021/09/24 09:27:47;;;;;;;;;;;;;;;20.05;50.33;100787.09;5015172;28;1712;-61
2021/09/24 09:30:13;;;;;;;;;;;;;;;20.15;50.30;100787.78;5015399;28;769;-62
2021/09/24 09:32:39;;;;;;;;;;;;;;;20.07;50.21;100777.41;5014964;28;816;-62
2021/09/24 09:35:05;;;;;;;;;;;;;;;20.22;50.00;100775.56;5015194;28;764;-62
2021/09/24 09:37:31;;;;;;;;;;;;;;;20.17;49.81;100769.00;5026617;28;1440;-62
2021/09/24 09:40:06;;;;;;;;;;;;;;;20.09;50.02;100753.09;5017039;28;1274;-62
2021/09/24 09:42:35;;;;;;;;;;;;;;;20.16;50.09;100745.25;5034966;28;827;-62
2021/09/24 09:45:01;;;;;;;;;;;;;;;19.99;50.14;100739.41;5034641;28;1898;-64
2021/09/24 09:47:32;;;;;;;;;;;;;;;20.15;49.83;100732.56;5020208;28;1421;-66
2021/09/24 09:50:08;;;;;;;;;;;;;;;20.09;49.96;100733.78;5015342;28;812;-66
2021/09/24 09:52:34;;;;;;;;;;;;;;;20.05;49.93;100738.25;5014613;28;1051;-69
2021/09/24 09:55:03;;;;;;;;;;;;;;;19.90;50.31;100731.00;4996697;28;1282;-65
2021/09/24 09:57:28;;;;;;;;;;;;;;;19.91;50.45;100727.13;5014585;28;1356;-68
2021/09/24 09:59:54;;;;;;;;;;;;;;;20.09;49.87;100722.72;5014815;28;812;-70
2021/09/24 10:02:20;;;;;;;;;;;;;;;20.09;49.82;100714.44;4997293;28;796;-67
2021/09/24 10:04:47;;;;;;;;;;;;;;;20.16;49.62;100706.59;5014420;28;1898;-66
2021/09/24 10:07:18;;;;;;;;;;;;;;;20.08;49.70;100709.22;5021629;28;1376;-67
2021/09/24 10:09:45;;;;;;;;;;;;;;;19.98;49.97;100704.69;5018930;28;791;-65
2021/09/24 10:12:17;;;;;;;;;;;;;;;19.95;49.89;100702.50;5018190;28;1080;-66
2021/09/24 10:14:43;;;;;;;;;;;;;;;19.97;49.82;100701.06;5036221;28;1979;-66
2021/09/24 10:17:08;;;;;;;;;;;;;;;20.09;49.65;100706.16;5037853;28;796;-66
2021/09/24 10:19:33;;;;;;;;;;;;;;;20.05;49.62;100696.84;5020263;28;1385;-66
2021/09/24 10:21:59;;;;;;;;;;;;;;;20.09;49.41;100694.28;5008802;28;1049;-66
2021/09/24 10:24:24;;;;;;;;;;;;;;;20.09;49.36;100691.53;5038546;28;775;-67
2021/09/24 10:26:54;;;;;;;;;;;;;;;20.10;49.53;100680.19;5037797;28;1991;-67
2021/09/24 10:29:26;;;;;;;;;;;;;;;19.80;50.15;100678.72;5026423;28;1424;-67
2021/09/24 10:31:51;;;;;;;;;;;;;;;20.03;49.81;100671.47;5000879;28;868;-65
2021/09/24 10:34:17;;;;;;;;;;;;;;;20.05;49.78;100669.22;5018417;28;769;-64
2021/09/24 10:36:50;;;;;;;;;;;;;;;20.11;49.34;100664.44;5017862;28;1116;-63
2021/09/24 10:39:31;;;;;;;;;;;;;;;20.02;49.67;100661.56;5017404;28;1359;-64
2021/09/24 10:42:15;;;;;;;;;;;;;;;20.16;49.44;100654.16;5018257;28;1844;-64
2021/09/24 10:44:59;;;;;;;;;;;;;;;20.12;49.45;100658.63;5018107;28;792;-65
2021/09/24 10:47:43;;;;;;;;;;;;;;;20.18;49.47;100640.84;5017860;28;1079;-65
2021/09/24 10:50:27;;;;;;;;;;;;;;;20.05;49.68;100647.16;5017612;28;1520;-63
2021/09/24 10:53:26;;;;;;;;;;;;;;;20.13;49.49;100646.47;5032918;28;1051;-63
2021/09/24 10:55:52;;;;;;;;;;;;;;;20.09;49.59;100628.03;5036823;28;891;-64
2021/09/24 10:58:26;;;;;;;;;;;;;;;20.01;49.86;100632.31;5037661;28;788;-63
2021/09/24 11:00:52;;;;;;;;;;;;;;;20.09;49.15;100634.41;5027704;28;1816;-63
2021/09/24 11:03:19;;;;;;;;;;;;;;;19.99;49.26;100623.50;5017306;28;836;-63
2021/09/24 11:06:03;;;;;;;;;;;;;;;20.00;49.15;100614.09;5017400;28;1910;-63
2021/09/24 11:08:29;;;;;;;;;;;;;;;20.12;49.16;100606.19;5015960;28;1022;-66
2021/09/24 11:11:02;;;;;;;;;;;;;;;20.14;48.97;100605.88;5019009;28;1812;-64
2021/09/24 11:13:27;;;;;;;;;;;;;;;20.07;48.86;100603.50;5037199;28;820;-63
2021/09/24 11:16:03;;;;;;;;;;;;;;;20.24;48.39;100597.41;5037152;28;808;-64
2021/09/24 11:18:47;;;;;;;;;;;;;;;20.26;48.41;100595.19;5036419;28;818;-63
2021/09/24 11:21:13;;;;;;;;;;;;;;;20.29;48.34;100607.56;5034670;28;1380;-63
2021/09/24 11:23:39;;;;;;;;;;;;;;;20.24;48.55;100591.06;5037122;28;812;-64
2021/09/24 11:26:18;;;;;;;;;;;;;;;20.11;48.70;100587.97;5031073;28;1914;-63
2021/09/24 11:28:44;;;;;;;;;;;;;;;20.10;48.67;100578.03;5017171;28;795;-64
2021/09/24 11:31:12;;;;;;;;;;;;;;;20.07;48.73;100586.94;5016584;28;789;-63
2021/09/24 11:33:41;;;;;;;;;;;;;;;20.25;48.37;100576.97;5017253;28;1681;-63
2021/09/24 11:36:07;;;;;;;;;;;;;;;19.96;48.87;100566.16;5017986;28;1038;-63
2021/09/24 11:38:32;;;;;;;;;;;;;;;19.93;49.05;100559.28;5036395;28;1039;-63
2021/09/24 11:40:58;;;;;;;;;;;;;;;20.00;48.93;100554.19;5036896;28;1190;-61
2021/09/24 11:43:23;;;;;;;;;;;;;;;19.98;49.04;100555.66;5025211;28;1398;-59
2021/09/24 11:45:49;;;;;;;;;;;;;;;19.98;49.02;100548.16;5017256;28;1911;-62
2021/09/24 11:48:14;;;;;;;;;;;;;;;20.04;48.64;100535.09;5016701;28;820;-61
2021/09/24 11:50:40;;;;;;;;;;;;;;;20.03;49.02;100541.75;5016839;28;772;-63
2021/09/24 11:53:11;;;;;;;;;;;;;;;20.34;47.87;100543.94;5015723;28;1322;-61
2021/09/24 11:55:37;;;;;;;;;;;;;;;20.19;48.43;100534.03;5016429;28;1260;-63
2021/09/24 11:58:07;;;;;;;;;;;;;;;20.19;48.52;100536.78;5016880;28;765;-63
2021/09/24 12:00:42;;;;;;;;;;;;;;;20.13;48.37;100521.41;5016300;28;745;-63
2021/09/24 12:03:08;;;;;;;;;;;;;;;20.12;48.52;100522.56;5016769;28;832;-62
2021/09/24 12:05:34;;;;;;;;;;;;;;;19.89;48.89;100532.59;5016445;28;1973;-63
2021/09/24 12:07:59;;;;;;;;;;;;;;;19.63;49.66;100527.50;5018028;28;1100;-63
2021/09/24 12:10:26;;;;;;;;;;;;;;;19.31;50.54;100526.31;5015701;28;1699;-62
2021/09/24 12:12:51;;;;;;;;;;;;;;;19.42;50.26;100505.75;5016055;28;1279;-63
2021/09/24 12:15:16;;;;;;;;;;;;;;;19.14;50.82;100515.81;5016600;28;1457;-63
2021/09/24 12:17:42;;;;;;;;;;;;;;;19.15;50.96;100493.47;5016024;28;1353;-62
2021/09/24 12:20:07;;;;;;;;;;;;;;;19.13;50.93;100512.22;5016038;28;1723;-62
2021/09/24 12:22:33;;;;;;;;;;;;;;;18.98;51.08;100501.41;5006664;28;1321;-63
2021/09/24 12:24:58;;;;;;;;;;;;;;;18.92;51.35;100505.38;5015512;28;1906;-64
2021/09/24 12:27:30;;;;;;;;;;;;;;;18.92;51.15;100502.59;5016608;28;1431;-64
2021/09/24 12:30:10;;;;;;;;;;;;;;;18.88;51.13;100502.38;5015150;28;1431;-63
2021/09/24 12:32:35;;;;;;;;;;;;;;;18.80;51.28;100492.81;5015279;28;1366;-62
2021/09/24 12:35:02;;;;;;;;;;;;;;;18.85;51.35;100483.66;5002496;28;1426;-63
2021/09/24 12:37:37;;;;;;;;;;;;;;;18.94;50.97;100475.56;5020303;28;1049;-64
2021/09/24 12:40:04;;;;;;;;;;;;;;;19.21;50.18;100460.28;5035667;28;780;-64
2021/09/24 12:42:36;;;;;;;;;;;;;;;19.51;49.52;100452.66;5035919;28;770;-64
2021/09/24 12:45:01;;;;;;;;;;;;;;;19.71;48.95;100440.47;5036122;28;1898;-64
2021/09/24 12:47:27;;;;;;;;;;;;;;;19.73;48.97;100444.56;5035746;28;756;-63
2021/09/24 12:49:53;;;;;;;;;;;;;;;19.80;48.51;100428.44;5035891;28;784;-66
2021/09/24 12:52:19;;;;;;;;;;;;;;;19.76;48.85;100421.88;5034853;28;1019;-66